Portada
METAR-TAF:

METAR-TAF

Aeroports :

Aeroport Internacional Reina Beatrix

Aruba, Aruba

latitud: 12-30N, longitud: 070-01W, altitud: 18 m

Observació

L'informe es va fer fa 13 minuts, a les 11:00 UTC
Vent 8 kt del Est
Temperatura 24°C
Humitat 89%
Pressió 1014 hPa
Visibilitat 10 km o més
Escasses núvols a una alçada de 1700 ft

METAR: TNCA 191100Z 08008KT 9999 FEW017 24/22 Q1014 RERA NOSIG

Hora: 07:13 (11:13 UTC)

Pronòstic

L'informe es va fer fa 5 hores i 58 minuts, a les 05:15 UTC
Pronòstic vàlid del 19 a les 06 UTC al 20 a les 06 UTC
Vent 15 kt del Est
Visibilitat 10 km o més
Núvols disperses a una alçada de 2000 ft
Temporalment
l' 19 a les 06 UTC al 19 a les 18 UTC
Vent 15 kt del Est amb ràfegues de 25 kt
Visibilitat: 5000 m
Cel ennuvolat a una alçada de 1400 ft
xàfecs de pluja

TAF: TNCA 190515Z 1906/2006 08015KT 9999 SCT020 TEMPO 1906/1918 10015G25KT 5000 SHRA BKN014

Observacions i pronòstics meteorològics de més de 4000 aeroports (METAR i TAF).

Les estacions disponibles són els punts grocs i vermells al mapa.

Posi el ratolí al punt desitjat per veure el nom de l'estació.

Feu clic per veure les observacions i els pronòstics meteorològics.

Per canviar el mapa: feu clic els botons verds amb una creu de color negre per apropar; al botó verd amb un guió per allunyar la imatge; o en les fletxes verdes per a mapes adjacents.


METAR-TAF: